sensor_id;sensor_type;location;lat;lon;timestamp;pressure;altitude;pressure_sealevel;temperature;humidity
80837;BME280;70251;60.008;30.404;2024-01-30T00:01:58;101879.38;;;4.43;69.47
80837;BME280;70251;60.008;30.404;2024-01-30T00:04:24;101891.75;;;4.41;69.45
80837;BME280;70251;60.008;30.404;2024-01-30T00:06:51;101888.19;;;4.42;69.10
80837;BME280;70251;60.008;30.404;2024-01-30T00:09:18;101886.53;;;4.39;68.89
80837;BME280;70251;60.008;30.404;2024-01-30T00:11:43;101888.47;;;4.36;69.59
80837;BME280;70251;60.008;30.404;2024-01-30T00:14:09;101887.47;;;4.38;69.50
80837;BME280;70251;60.008;30.404;2024-01-30T00:16:34;101891.03;;;4.37;69.54
80837;BME280;70251;60.008;30.404;2024-01-30T00:19:00;101874.41;;;4.35;68.99
80837;BME280;70251;60.008;30.404;2024-01-30T00:21:27;101895.72;;;4.31;69.93
80837;BME280;70251;60.008;30.404;2024-01-30T00:23:53;101891.19;;;4.34;69.50
80837;BME280;70251;60.008;30.404;2024-01-30T00:26:19;101898.16;;;4.35;69.71
80837;BME280;70251;60.008;30.404;2024-01-30T00:28:45;101902.75;;;4.32;69.83
80837;BME280;70251;60.008;30.404;2024-01-30T00:31:10;101932.69;;;4.31;69.78
80837;BME280;70251;60.008;30.404;2024-01-30T00:33:39;101913.31;;;4.32;69.34
80837;BME280;70251;60.008;30.404;2024-01-30T00:36:05;101903.53;;;4.34;69.09
80837;BME280;70251;60.008;30.404;2024-01-30T00:38:32;101921.41;;;4.27;69.86
80837;BME280;70251;60.008;30.404;2024-01-30T00:40:58;101906.63;;;4.23;69.91
80837;BME280;70251;60.008;30.404;2024-01-30T00:43:24;101939.22;;;4.22;70.35
80837;BME280;70251;60.008;30.404;2024-01-30T00:45:50;101913.81;;;4.20;69.93
80837;BME280;70251;60.008;30.404;2024-01-30T00:48:18;101916.41;;;4.21;70.20
80837;BME280;70251;60.008;30.404;2024-01-30T00:50:44;101924.38;;;4.20;70.13
80837;BME280;70251;60.008;30.404;2024-01-30T00:53:09;101935.16;;;4.15;70.13
80837;BME280;70251;60.008;30.404;2024-01-30T00:55:35;101935.94;;;4.17;70.30
80837;BME280;70251;60.008;30.404;2024-01-30T00:58:01;101933.34;;;4.16;70.32
80837;BME280;70251;60.008;30.404;2024-01-30T01:00:27;101927.34;;;4.12;69.91
80837;BME280;70251;60.008;30.404;2024-01-30T01:02:58;101930.78;;;4.14;70.28
80837;BME280;70251;60.008;30.404;2024-01-30T01:05:23;101937.72;;;4.17;70.14
80837;BME280;70251;60.008;30.404;2024-01-30T01:07:49;101931.75;;;4.12;70.49
80837;BME280;70251;60.008;30.404;2024-01-30T01:10:16;101938.88;;;4.10;71.08
80837;BME280;70251;60.008;30.404;2024-01-30T01:12:42;101943.19;;;4.12;70.25
80837;BME280;70251;60.008;30.404;2024-01-30T01:15:09;101934.28;;;4.15;70.37
80837;BME280;70251;60.008;30.404;2024-01-30T01:17:38;101940.63;;;4.11;70.82
80837;BME280;70251;60.008;30.404;2024-01-30T01:20:04;101939.81;;;4.09;70.56
80837;BME280;70251;60.008;30.404;2024-01-30T01:22:32;101948.53;;;4.11;70.21
80837;BME280;70251;60.008;30.404;2024-01-30T01:24:58;101954.72;;;4.10;70.58
80837;BME280;70251;60.008;30.404;2024-01-30T01:27:24;101970.94;;;4.01;70.65
80837;BME280;70251;60.008;30.404;2024-01-30T01:29:51;101967.69;;;3.94;71.04
80837;BME280;70251;60.008;30.404;2024-01-30T01:32:17;101972.31;;;3.89;71.31
80837;BME280;70251;60.008;30.404;2024-01-30T01:34:42;101967.91;;;3.89;71.33
80837;BME280;70251;60.008;30.404;2024-01-30T01:37:08;101958.78;;;3.97;70.85
80837;BME280;70251;60.008;30.404;2024-01-30T01:39:34;101969.22;;;4.00;70.46
80837;BME280;70251;60.008;30.404;2024-01-30T01:41:59;101967.75;;;3.92;71.08
80837;BME280;70251;60.008;30.404;2024-01-30T01:44:25;101968.13;;;3.83;71.50
80837;BME280;70251;60.008;30.404;2024-01-30T01:46:52;101986.66;;;3.82;71.68
80837;BME280;70251;60.008;30.404;2024-01-30T01:49:17;101991.13;;;3.80;71.36
80837;BME280;70251;60.008;30.404;2024-01-30T01:51:45;101983.22;;;3.80;71.85
80837;BME280;70251;60.008;30.404;2024-01-30T01:54:14;102000.59;;;3.85;70.90
80837;BME280;70251;60.008;30.404;2024-01-30T01:56:40;102003.00;;;3.91;71.17
80837;BME280;70251;60.008;30.404;2024-01-30T01:59:08;102002.00;;;3.94;71.27
80837;BME280;70251;60.008;30.404;2024-01-30T02:01:36;102000.22;;;3.94;71.33
80837;BME280;70251;60.008;30.404;2024-01-30T02:04:02;102010.41;;;3.82;71.81
80837;BME280;70251;60.008;30.404;2024-01-30T02:06:28;102009.50;;;3.83;71.75
80837;BME280;70251;60.008;30.404;2024-01-30T02:08:54;102010.97;;;3.90;71.13
80837;BME280;70251;60.008;30.404;2024-01-30T02:11:21;102018.69;;;3.94;70.62
80837;BME280;70251;60.008;30.404;2024-01-30T02:13:49;102021.59;;;3.88;71.33
80837;BME280;70251;60.008;30.404;2024-01-30T02:16:15;102031.66;;;3.79;71.93
80837;BME280;70251;60.008;30.404;2024-01-30T02:18:42;102031.53;;;3.82;71.52
80837;BME280;70251;60.008;30.404;2024-01-30T02:21:18;102036.97;;;3.77;71.74
80837;BME280;70251;60.008;30.404;2024-01-30T02:23:46;102032.63;;;3.76;71.70
80837;BME280;70251;60.008;30.404;2024-01-30T02:26:13;102031.59;;;3.80;71.62
80837;BME280;70251;60.008;30.404;2024-01-30T02:28:39;102021.66;;;3.87;70.95
80837;BME280;70251;60.008;30.404;2024-01-30T02:31:05;102029.22;;;3.73;71.99
80837;BME280;70251;60.008;30.404;2024-01-30T02:33:31;102029.47;;;3.67;72.29
80837;BME280;70251;60.008;30.404;2024-01-30T02:35:57;102012.59;;;3.71;71.72
80837;BME280;70251;60.008;30.404;2024-01-30T02:38:24;102030.25;;;3.70;71.66
80837;BME280;70251;60.008;30.404;2024-01-30T02:40:50;102009.13;;;3.70;71.46
80837;BME280;70251;60.008;30.404;2024-01-30T02:43:16;102030.25;;;3.70;72.03
80837;BME280;70251;60.008;30.404;2024-01-30T02:45:42;102033.69;;;3.72;71.44
80837;BME280;70251;60.008;30.404;2024-01-30T02:48:08;102035.28;;;3.76;71.44
80837;BME280;70251;60.008;30.404;2024-01-30T02:50:34;102030.63;;;3.83;70.87
80837;BME280;70251;60.008;30.404;2024-01-30T02:53:00;102026.31;;;3.80;71.95
80837;BME280;70251;60.008;30.404;2024-01-30T02:55:26;102024.59;;;3.79;71.29
80837;BME280;70251;60.008;30.404;2024-01-30T02:57:51;102020.41;;;3.74;71.26
80837;BME280;70251;60.008;30.404;2024-01-30T03:00:17;102040.00;;;3.68;71.75
80837;BME280;70251;60.008;30.404;2024-01-30T03:02:43;102043.47;;;3.69;71.54
80837;BME280;70251;60.008;30.404;2024-01-30T03:05:08;102046.88;;;3.72;71.30
80837;BME280;70251;60.008;30.404;2024-01-30T03:07:34;102044.34;;;3.69;71.16
80837;BME280;70251;60.008;30.404;2024-01-30T03:10:00;102042.72;;;3.65;71.75
80837;BME280;70251;60.008;30.404;2024-01-30T03:12:26;102045.19;;;3.70;71.27
80837;BME280;70251;60.008;30.404;2024-01-30T03:14:51;102050.75;;;3.62;71.94
80837;BME280;70251;60.008;30.404;2024-01-30T03:17:18;102043.94;;;3.57;71.94
80837;BME280;70251;60.008;30.404;2024-01-30T03:19:43;102063.44;;;3.53;72.24
80837;BME280;70251;60.008;30.404;2024-01-30T03:22:09;102061.94;;;3.46;72.36
80837;BME280;70251;60.008;30.404;2024-01-30T03:24:35;102059.31;;;3.46;72.47
80837;BME280;70251;60.008;30.404;2024-01-30T03:27:00;102051.53;;;3.43;72.58
80837;BME280;70251;60.008;30.404;2024-01-30T03:29:27;102065.38;;;3.48;72.69
80837;BME280;70251;60.008;30.404;2024-01-30T03:31:52;102079.59;;;3.44;72.74
80837;BME280;70251;60.008;30.404;2024-01-30T03:34:18;102082.97;;;3.47;72.68
80837;BME280;70251;60.008;30.404;2024-01-30T03:36:43;102079.13;;;3.56;72.23
80837;BME280;70251;60.008;30.404;2024-01-30T03:39:09;102078.06;;;3.61;72.12
80837;BME280;70251;60.008;30.404;2024-01-30T03:41:35;102079.56;;;3.68;71.77
80837;BME280;70251;60.008;30.404;2024-01-30T03:44:01;102060.97;;;3.71;71.30
80837;BME280;70251;60.008;30.404;2024-01-30T03:46:27;102070.81;;;3.66;71.38
80837;BME280;70251;60.008;30.404;2024-01-30T03:48:52;102066.19;;;3.73;71.11
80837;BME280;70251;60.008;30.404;2024-01-30T03:51:18;102070.63;;;3.72;71.78
80837;BME280;70251;60.008;30.404;2024-01-30T03:53:44;102062.91;;;3.66;71.51
80837;BME280;70251;60.008;30.404;2024-01-30T03:56:11;102062.75;;;3.71;71.38
80837;BME280;70251;60.008;30.404;2024-01-30T03:58:39;102062.91;;;3.66;71.32
80837;BME280;70251;60.008;30.404;2024-01-30T04:01:05;102068.94;;;3.70;71.45
80837;BME280;70251;60.008;30.404;2024-01-30T04:03:30;102070.72;;;3.69;71.13
80837;BME280;70251;60.008;30.404;2024-01-30T04:05:56;102069.00;;;3.68;71.37
80837;BME280;70251;60.008;30.404;2024-01-30T04:08:21;102070.94;;;3.63;71.52
80837;BME280;70251;60.008;30.404;2024-01-30T04:10:47;102070.22;;;3.60;72.18
80837;BME280;70251;60.008;30.404;2024-01-30T04:13:13;102070.25;;;3.58;71.37
80837;BME280;70251;60.008;30.404;2024-01-30T04:15:39;102063.94;;;3.62;71.47
80837;BME280;70251;60.008;30.404;2024-01-30T04:18:05;102075.44;;;3.61;71.54
80837;BME280;70251;60.008;30.404;2024-01-30T04:20:31;102060.41;;;3.63;71.47
80837;BME280;70251;60.008;30.404;2024-01-30T04:22:57;102065.53;;;3.66;71.56
80837;BME280;70251;60.008;30.404;2024-01-30T04:25:22;102078.72;;;3.66;71.35
80837;BME280;70251;60.008;30.404;2024-01-30T04:27:48;102073.44;;;3.68;70.81
80837;BME280;70251;60.008;30.404;2024-01-30T04:30:14;102073.25;;;3.72;71.50
80837;BME280;70251;60.008;30.404;2024-01-30T04:32:40;102079.34;;;3.74;71.26
80837;BME280;70251;60.008;30.404;2024-01-30T04:35:06;102074.28;;;3.68;71.61
80837;BME280;70251;60.008;30.404;2024-01-30T04:37:32;102075.44;;;3.61;71.58
80837;BME280;70251;60.008;30.404;2024-01-30T04:39:57;102069.28;;;3.61;71.45
80837;BME280;70251;60.008;30.404;2024-01-30T04:42:23;102064.75;;;3.64;71.15
80837;BME280;70251;60.008;30.404;2024-01-30T04:44:49;102066.88;;;3.55;71.93
80837;BME280;70251;60.008;30.404;2024-01-30T04:47:15;102066.72;;;3.59;71.87
80837;BME280;70251;60.008;30.404;2024-01-30T04:49:42;102065.22;;;3.52;71.27
80837;BME280;70251;60.008;30.404;2024-01-30T04:52:08;102071.41;;;3.51;71.82
80837;BME280;70251;60.008;30.404;2024-01-30T04:54:35;102069.59;;;3.53;71.75
80837;BME280;70251;60.008;30.404;2024-01-30T04:57:02;102080.13;;;3.53;71.90
80837;BME280;70251;60.008;30.404;2024-01-30T04:59:28;102070.72;;;3.46;71.53
80837;BME280;70251;60.008;30.404;2024-01-30T05:01:53;102082.06;;;3.48;71.80
80837;BME280;70251;60.008;30.404;2024-01-30T05:04:19;102074.38;;;3.42;71.95
80837;BME280;70251;60.008;30.404;2024-01-30T05:06:45;102083.03;;;3.46;71.96
80837;BME280;70251;60.008;30.404;2024-01-30T05:09:16;102085.69;;;3.46;72.04
80837;BME280;70251;60.008;30.404;2024-01-30T05:11:42;102088.94;;;3.52;71.50
80837;BME280;70251;60.008;30.404;2024-01-30T05:14:08;102090.06;;;3.47;71.70
80837;BME280;70251;60.008;30.404;2024-01-30T05:16:34;102097.91;;;3.48;71.56
80837;BME280;70251;60.008;30.404;2024-01-30T05:19:00;102098.88;;;3.46;71.43
80837;BME280;70251;60.008;30.404;2024-01-30T05:21:26;102106.09;;;3.41;72.06
80837;BME280;70251;60.008;30.404;2024-01-30T05:23:51;102114.19;;;3.36;72.04
80837;BME280;70251;60.008;30.404;2024-01-30T05:26:17;102112.34;;;3.38;72.09
80837;BME280;70251;60.008;30.404;2024-01-30T05:28:43;102126.50;;;3.36;72.43
80837;BME280;70251;60.008;30.404;2024-01-30T05:31:13;102136.34;;;3.31;72.71
80837;BME280;70251;60.008;30.404;2024-01-30T05:33:40;102130.00;;;3.36;72.34
80837;BME280;70251;60.008;30.404;2024-01-30T05:36:05;102136.91;;;3.39;72.21
80837;BME280;70251;60.008;30.404;2024-01-30T05:38:31;102133.44;;;3.38;72.71
80837;BME280;70251;60.008;30.404;2024-01-30T05:40:57;102135.94;;;3.41;72.51
80837;BME280;70251;60.008;30.404;2024-01-30T05:43:24;102138.59;;;3.41;72.47
80837;BME280;70251;60.008;30.404;2024-01-30T05:45:50;102149.44;;;3.34;72.52
80837;BME280;70251;60.008;30.404;2024-01-30T05:48:16;102143.22;;;3.35;72.92
80837;BME280;70251;60.008;30.404;2024-01-30T05:50:42;102139.78;;;3.33;72.88
80837;BME280;70251;60.008;30.404;2024-01-30T05:53:08;102124.00;;;3.31;72.40
80837;BME280;70251;60.008;30.404;2024-01-30T05:55:33;102130.69;;;3.41;72.63
80837;BME280;70251;60.008;30.404;2024-01-30T05:57:59;102133.22;;;3.44;72.22
80837;BME280;70251;60.008;30.404;2024-01-30T06:00:25;102138.72;;;3.38;72.51
80837;BME280;70251;60.008;30.404;2024-01-30T06:02:50;102141.38;;;3.37;72.84
80837;BME280;70251;60.008;30.404;2024-01-30T06:05:16;102138.28;;;3.26;73.24
80837;BME280;70251;60.008;30.404;2024-01-30T06:07:42;102143.66;;;3.23;73.21
80837;BME280;70251;60.008;30.404;2024-01-30T06:10:08;102124.22;;;3.25;73.38
80837;BME280;70251;60.008;30.404;2024-01-30T06:12:34;102129.50;;;3.25;73.49
80837;BME280;70251;60.008;30.404;2024-01-30T06:15:00;102136.34;;;3.31;73.14
80837;BME280;70251;60.008;30.404;2024-01-30T06:17:28;102137.25;;;3.30;72.97
80837;BME280;70251;60.008;30.404;2024-01-30T06:19:54;102138.09;;;3.30;73.28
80837;BME280;70251;60.008;30.404;2024-01-30T06:22:19;102136.34;;;3.31;73.39
80837;BME280;70251;60.008;30.404;2024-01-30T06:24:45;102130.03;;;3.35;73.12
80837;BME280;70251;60.008;30.404;2024-01-30T06:27:13;102145.00;;;3.34;73.27
80837;BME280;70251;60.008;30.404;2024-01-30T06:29:40;102136.34;;;3.31;72.93
80837;BME280;70251;60.008;30.404;2024-01-30T06:32:06;102136.34;;;3.31;72.87
80837;BME280;70251;60.008;30.404;2024-01-30T06:34:31;102147.84;;;3.28;73.64
80837;BME280;70251;60.008;30.404;2024-01-30T06:36:57;102167.66;;;3.15;74.14
80837;BME280;70251;60.008;30.404;2024-01-30T06:39:23;102158.81;;;3.16;73.70
80837;BME280;70251;60.008;30.404;2024-01-30T06:41:50;102148.06;;;3.22;73.83
80837;BME280;70251;60.008;30.404;2024-01-30T06:44:16;102156.94;;;3.20;74.00
80837;BME280;70251;60.008;30.404;2024-01-30T06:46:41;102155.00;;;3.25;73.81
80837;BME280;70251;60.008;30.404;2024-01-30T06:49:07;102173.69;;;3.19;73.77
80837;BME280;70251;60.008;30.404;2024-01-30T06:51:33;102160.44;;;3.20;73.78
80837;BME280;70251;60.008;30.404;2024-01-30T06:53:58;102172.22;;;3.10;74.30
80837;BME280;70251;60.008;30.404;2024-01-30T06:56:24;102152.88;;;3.09;74.51
80837;BME280;70251;60.008;30.404;2024-01-30T06:58:50;102170.19;;;3.18;74.01
80837;BME280;70251;60.008;30.404;2024-01-30T07:01:16;102170.97;;;3.20;74.05
80837;BME280;70251;60.008;30.404;2024-01-30T07:03:42;102182.56;;;3.16;73.75
80837;BME280;70251;60.008;30.404;2024-01-30T07:06:09;102166.63;;;3.19;73.90
80837;BME280;70251;60.008;30.404;2024-01-30T07:08:36;102171.84;;;3.21;74.21
80837;BME280;70251;60.008;30.404;2024-01-30T07:11:05;102175.56;;;3.15;74.12
80837;BME280;70251;60.008;30.404;2024-01-30T07:13:31;102177.44;;;3.11;74.37
80837;BME280;70251;60.008;30.404;2024-01-30T07:15:57;102172.22;;;3.10;74.01
80837;BME280;70251;60.008;30.404;2024-01-30T07:18:22;102171.41;;;3.08;74.38
80837;BME280;70251;60.008;30.404;2024-01-30T07:20:48;102172.22;;;3.10;74.13
80837;BME280;70251;60.008;30.404;2024-01-30T07:23:15;102166.13;;;3.08;74.33
80837;BME280;70251;60.008;30.404;2024-01-30T07:25:44;102172.97;;;3.13;74.15
80837;BME280;70251;60.008;30.404;2024-01-30T07:28:10;102171.28;;;3.11;73.85
80837;BME280;70251;60.008;30.404;2024-01-30T07:30:37;102166.88;;;3.11;74.14
80837;BME280;70251;60.008;30.404;2024-01-30T07:33:04;102169.50;;;3.13;73.68
80837;BME280;70251;60.008;30.404;2024-01-30T07:35:30;102166.63;;;3.19;73.63
80837;BME280;70251;60.008;30.404;2024-01-30T07:37:55;102161.97;;;3.27;73.22
80837;BME280;70251;60.008;30.404;2024-01-30T07:40:24;102168.13;;;3.26;73.79
80837;BME280;70251;60.008;30.404;2024-01-30T07:42:49;102169.59;;;3.35;73.04
80837;BME280;70251;60.008;30.404;2024-01-30T07:45:15;102172.03;;;3.41;73.41
80837;BME280;70251;60.008;30.404;2024-01-30T07:47:41;102173.81;;;3.40;72.69
80837;BME280;70251;60.008;30.404;2024-01-30T07:50:08;102181.94;;;3.34;72.66
80837;BME280;70251;60.008;30.404;2024-01-30T07:52:34;102182.03;;;3.31;72.69
80837;BME280;70251;60.008;30.404;2024-01-30T07:55:00;102171.56;;;3.28;73.61
80837;BME280;70251;60.008;30.404;2024-01-30T07:57:28;102172.38;;;3.30;73.06
80837;BME280;70251;60.008;30.404;2024-01-30T07:59:54;102176.69;;;3.33;73.18
80837;BME280;70251;60.008;30.404;2024-01-30T08:02:19;102184.88;;;3.25;73.26
80837;BME280;70251;60.008;30.404;2024-01-30T08:04:45;102191.78;;;3.29;73.47
80837;BME280;70251;60.008;30.404;2024-01-30T08:07:14;102190.00;;;3.30;73.47
80837;BME280;70251;60.008;30.404;2024-01-30T08:09:40;102191.69;;;3.32;72.74
80837;BME280;70251;60.008;30.404;2024-01-30T08:12:05;102184.34;;;3.40;72.64
80837;BME280;70251;60.008;30.404;2024-01-30T08:14:31;102189.84;;;3.34;73.22
80837;BME280;70251;60.008;30.404;2024-01-30T08:16:57;102195.94;;;3.36;72.74
80837;BME280;70251;60.008;30.404;2024-01-30T08:19:23;102199.59;;;3.32;73.09
80837;BME280;70251;60.008;30.404;2024-01-30T08:21:48;102189.13;;;3.29;73.57
80837;BME280;70251;60.008;30.404;2024-01-30T08:24:14;102189.19;;;3.28;73.15
80837;BME280;70251;60.008;30.404;2024-01-30T08:26:39;102194.50;;;3.26;73.07
80837;BME280;70251;60.008;30.404;2024-01-30T08:29:05;102190.75;;;3.33;73.44
80837;BME280;70251;60.008;30.404;2024-01-30T08:31:31;102170.63;;;3.31;73.26
80837;BME280;70251;60.008;30.404;2024-01-30T08:33:56;102185.25;;;3.39;72.96
80837;BME280;70251;60.008;30.404;2024-01-30T08:36:22;102183.28;;;3.46;73.19
80837;BME280;70251;60.008;30.404;2024-01-30T08:38:48;102198.19;;;3.47;72.83
80837;BME280;70251;60.008;30.404;2024-01-30T08:41:13;102200.84;;;3.47;72.74
80837;BME280;70251;60.008;30.404;2024-01-30T08:43:39;102189.13;;;3.54;72.48
80837;BME280;70251;60.008;30.404;2024-01-30T08:46:05;102210.31;;;3.52;72.48
80837;BME280;70251;60.008;30.404;2024-01-30T08:48:30;102206.94;;;3.47;72.45
80837;BME280;70251;60.008;30.404;2024-01-30T08:50:56;102206.75;;;3.53;72.51
80837;BME280;70251;60.008;30.404;2024-01-30T08:53:22;102214.84;;;3.49;72.75
80837;BME280;70251;60.008;30.404;2024-01-30T08:55:47;102211.16;;;3.53;72.68
80837;BME280;70251;60.008;30.404;2024-01-30T08:58:13;102213.16;;;3.46;72.62
80837;BME280;70251;60.008;30.404;2024-01-30T09:00:39;102207.06;;;3.44;72.90
80837;BME280;70251;60.008;30.404;2024-01-30T09:03:04;102215.66;;;3.49;72.60
80837;BME280;70251;60.008;30.404;2024-01-30T09:05:30;102212.03;;;3.53;72.33
80837;BME280;70251;60.008;30.404;2024-01-30T09:07:56;102204.00;;;3.56;72.80
80837;BME280;70251;60.008;30.404;2024-01-30T09:10:21;102211.69;;;3.62;71.98
80837;BME280;70251;60.008;30.404;2024-01-30T09:12:47;102212.50;;;3.64;72.38
80837;BME280;70251;60.008;30.404;2024-01-30T09:15:13;102218.72;;;3.63;72.42
80837;BME280;70251;60.008;30.404;2024-01-30T09:17:38;102219.34;;;3.70;72.59
80837;BME280;70251;60.008;30.404;2024-01-30T09:20:05;102221.72;;;3.77;72.67
80837;BME280;70251;60.008;30.404;2024-01-30T09:22:31;102222.53;;;3.79;71.53
80837;BME280;70251;60.008;30.404;2024-01-30T09:24:57;102216.34;;;3.80;72.38
80837;BME280;70251;60.008;30.404;2024-01-30T09:27:23;102218.84;;;3.83;71.96
80837;BME280;70251;60.008;30.404;2024-01-30T09:29:48;102212.97;;;4.00;72.12
80837;BME280;70251;60.008;30.404;2024-01-30T09:32:14;102226.19;;;4.23;71.57
80837;BME280;70251;60.008;30.404;2024-01-30T09:34:40;102227.16;;;4.44;71.25
80837;BME280;70251;60.008;30.404;2024-01-30T09:37:07;102224.56;;;4.65;71.35
80837;BME280;70251;60.008;30.404;2024-01-30T09:39:35;102217.91;;;4.77;71.25
80837;BME280;70251;60.008;30.404;2024-01-30T09:42:20;102219.06;;;5.13;70.33
80837;BME280;70251;60.008;30.404;2024-01-30T09:44:51;102220.56;;;5.61;69.75
80837;BME280;70251;60.008;30.404;2024-01-30T09:47:18;102216.53;;;5.92;68.64
80837;BME280;70251;60.008;30.404;2024-01-30T09:49:44;102204.72;;;6.38;68.50
80837;BME280;70251;60.008;30.404;2024-01-30T09:52:11;102205.00;;;6.69;68.21
80837;BME280;70251;60.008;30.404;2024-01-30T09:54:38;102210.81;;;6.94;66.89
80837;BME280;70251;60.008;30.404;2024-01-30T09:57:04;102206.03;;;7.02;67.17
80837;BME280;70251;60.008;30.404;2024-01-30T09:59:31;102210.88;;;7.12;66.54
80837;BME280;70251;60.008;30.404;2024-01-30T10:01:57;102203.53;;;7.17;65.83
80837;BME280;70251;60.008;30.404;2024-01-30T10:04:22;102207.38;;;7.45;65.46
80837;BME280;70251;60.008;30.404;2024-01-30T10:06:49;102211.19;;;7.74;64.80
80837;BME280;70251;60.008;30.404;2024-01-30T10:09:15;102200.59;;;8.07;64.64
80837;BME280;70251;60.008;30.404;2024-01-30T10:11:40;102201.19;;;8.44;64.29
80837;BME280;70251;60.008;30.404;2024-01-30T10:14:06;102204.97;;;8.72;63.12
80837;BME280;70251;60.008;30.404;2024-01-30T10:16:31;102211.50;;;8.82;62.87
80837;BME280;70251;60.008;30.404;2024-01-30T10:18:57;102204.28;;;8.99;62.34
80837;BME280;70251;60.008;30.404;2024-01-30T10:21:23;102211.72;;;9.24;62.06
80837;BME280;70251;60.008;30.404;2024-01-30T10:23:49;102213.25;;;9.28;60.70
80837;BME280;70251;60.008;30.404;2024-01-30T10:26:16;102215.44;;;9.35;61.31
80837;BME280;70251;60.008;30.404;2024-01-30T10:28:43;102218.34;;;9.47;60.51
80837;BME280;70251;60.008;30.404;2024-01-30T10:31:08;102212.25;;;9.15;60.22
80837;BME280;70251;60.008;30.404;2024-01-30T10:33:34;102214.47;;;8.29;60.31
80837;BME280;70251;60.008;30.404;2024-01-30T10:36:01;102219.50;;;7.51;61.50
80837;BME280;70251;60.008;30.404;2024-01-30T10:38:29;102211.22;;;6.87;62.49
80837;BME280;70251;60.008;30.404;2024-01-30T10:41:01;102215.69;;;6.49;63.18
80837;BME280;70251;60.008;30.404;2024-01-30T10:43:40;102212.69;;;6.19;63.70
80837;BME280;70251;60.008;30.404;2024-01-30T10:46:19;102230.81;;;5.90;64.16
80837;BME280;70251;60.008;30.404;2024-01-30T10:48:58;102213.97;;;5.71;64.50
80837;BME280;70251;60.008;30.404;2024-01-30T10:51:28;102226.13;;;5.55;64.85
80837;BME280;70251;60.008;30.404;2024-01-30T10:53:55;102226.31;;;5.50;65.15
80837;BME280;70251;60.008;30.404;2024-01-30T10:56:21;102220.44;;;5.43;65.28
80837;BME280;70251;60.008;30.404;2024-01-30T10:58:52;102221.50;;;5.39;65.11
80837;BME280;70251;60.008;30.404;2024-01-30T11:01:19;102217.63;;;5.26;65.05
80837;BME280;70251;60.008;30.404;2024-01-30T11:03:45;102230.94;;;5.25;65.37
80837;BME280;70251;60.008;30.404;2024-01-30T11:06:11;102235.78;;;5.14;65.69
80837;BME280;70251;60.008;30.404;2024-01-30T11:08:45;102236.50;;;4.97;65.94
80837;BME280;70251;60.008;30.404;2024-01-30T11:11:10;102237.53;;;4.93;65.99
80837;BME280;70251;60.008;30.404;2024-01-30T11:13:36;102226.88;;;4.73;66.37
80837;BME280;70251;60.008;30.404;2024-01-30T11:16:02;102233.22;;;4.69;66.11
80837;BME280;70251;60.008;30.404;2024-01-30T11:18:29;102241.28;;;4.66;67.30
80837;BME280;70251;60.008;30.404;2024-01-30T11:21:01;102237.84;;;4.64;66.77
80837;BME280;70251;60.008;30.404;2024-01-30T11:23:30;102236.78;;;4.68;66.40
80837;BME280;70251;60.008;30.404;2024-01-30T11:25:58;102235.59;;;4.75;66.77
80837;BME280;70251;60.008;30.404;2024-01-30T11:28:24;102230.09;;;4.81;66.43
80837;BME280;70251;60.008;30.404;2024-01-30T11:30:50;102236.22;;;4.82;66.48
80837;BME280;70251;60.008;30.404;2024-01-30T11:33:36;102240.78;;;4.78;67.11
80837;BME280;70251;60.008;30.404;2024-01-30T11:36:02;102237.25;;;4.79;66.45
80837;BME280;70251;60.008;30.404;2024-01-30T11:38:28;102230.13;;;4.80;66.96
80837;BME280;70251;60.008;30.404;2024-01-30T11:40:54;102232.06;;;4.76;66.69
80837;BME280;70251;60.008;30.404;2024-01-30T11:43:23;102225.16;;;4.72;66.97
80837;BME280;70251;60.008;30.404;2024-01-30T11:45:49;102229.47;;;4.75;66.58
80837;BME280;70251;60.008;30.404;2024-01-30T11:48:15;102232.16;;;4.73;66.97
80837;BME280;70251;60.008;30.404;2024-01-30T11:50:41;102231.94;;;4.79;66.76
80837;BME280;70251;60.008;30.404;2024-01-30T11:53:07;102230.69;;;4.88;66.99
80837;BME280;70251;60.008;30.404;2024-01-30T11:55:33;102235.75;;;4.94;66.98
80837;BME280;70251;60.008;30.404;2024-01-30T11:58:01;102231.88;;;5.02;66.86
80837;BME280;70251;60.008;30.404;2024-01-30T12:00:27;102235.97;;;5.09;66.07
80837;BME280;70251;60.008;30.404;2024-01-30T12:02:54;102230.59;;;5.12;66.80
80837;BME280;70251;60.008;30.404;2024-01-30T12:05:24;102234.03;;;5.14;66.21
80837;BME280;70251;60.008;30.404;2024-01-30T12:07:50;102230.47;;;5.15;66.20
80837;BME280;70251;60.008;30.404;2024-01-30T12:10:17;102235.53;;;5.20;66.27
80837;BME280;70251;60.008;30.404;2024-01-30T12:12:47;102229.94;;;5.27;65.99
80837;BME280;70251;60.008;30.404;2024-01-30T12:15:14;102230.59;;;5.32;66.61
80837;BME280;70251;60.008;30.404;2024-01-30T12:17:40;102226.13;;;5.34;66.44
80837;BME280;70251;60.008;30.404;2024-01-30T12:20:10;102226.97;;;5.35;66.10
80837;BME280;70251;60.008;30.404;2024-01-30T12:22:40;102223.50;;;5.34;66.63
80837;BME280;70251;60.008;30.404;2024-01-30T12:25:16;102216.94;;;5.43;66.09
80837;BME280;70251;60.008;30.404;2024-01-30T12:27:44;102215.75;;;5.50;66.43
80837;BME280;70251;60.008;30.404;2024-01-30T12:30:12;102212.25;;;5.70;66.80
80837;BME280;70251;60.008;30.404;2024-01-30T12:32:42;102209.94;;;6.02;65.80
80837;BME280;70251;60.008;30.404;2024-01-30T12:35:12;102202.94;;;6.39;65.33
80837;BME280;70251;60.008;30.404;2024-01-30T12:37:38;102201.00;;;6.61;65.08
80837;BME280;70251;60.008;30.404;2024-01-30T12:40:05;102208.56;;;6.87;64.22
80837;BME280;70251;60.008;30.404;2024-01-30T12:42:34;102199.31;;;7.13;64.20
80837;BME280;70251;60.008;30.404;2024-01-30T12:45:00;102202.16;;;7.44;63.96
80837;BME280;70251;60.008;30.404;2024-01-30T12:47:26;102209.31;;;7.76;63.22